sensor_id;sensor_type;location;lat;lon;timestamp;P1;durP1;ratioP1;P2;durP2;ratioP2
7029;SDS011;3556;53.500;10.176;2022-07-29T00:01:17;2.80;;;1.80;;
7029;SDS011;3556;53.500;10.176;2022-07-29T00:03:43;3.40;;;1.50;;
7029;SDS011;3556;53.500;10.176;2022-07-29T00:06:09;1.80;;;1.70;;
7029;SDS011;3556;53.500;10.176;2022-07-29T00:08:34;1.60;;;1.50;;
7029;SDS011;3556;53.500;10.176;2022-07-29T00:11:00;2.10;;;1.83;;
7029;SDS011;3556;53.500;10.176;2022-07-29T00:13:25;3.43;;;1.57;;
7029;SDS011;3556;53.500;10.176;2022-07-29T00:15:51;1.80;;;1.70;;
7029;SDS011;3556;53.500;10.176;2022-07-29T00:18:17;3.53;;;2.23;;
7029;SDS011;3556;53.500;10.176;2022-07-29T00:20:42;2.10;;;2.00;;
7029;SDS011;3556;53.500;10.176;2022-07-29T00:23:08;6.97;;;1.77;;
7029;SDS011;3556;53.500;10.176;2022-07-29T00:25:34;1.60;;;1.50;;
7029;SDS011;3556;53.500;10.176;2022-07-29T00:27:59;2.60;;;1.70;;
7029;SDS011;3556;53.500;10.176;2022-07-29T00:30:25;4.20;;;2.30;;
7029;SDS011;3556;53.500;10.176;2022-07-29T00:32:50;2.93;;;1.87;;
7029;SDS011;3556;53.500;10.176;2022-07-29T00:35:16;2.00;;;1.90;;
7029;SDS011;3556;53.500;10.176;2022-07-29T00:38:00;4.23;;;2.07;;
7029;SDS011;3556;53.500;10.176;2022-07-29T00:40:26;2.20;;;2.10;;
7029;SDS011;3556;53.500;10.176;2022-07-29T00:42:52;2.10;;;1.90;;
7029;SDS011;3556;53.500;10.176;2022-07-29T00:45:18;3.00;;;1.73;;
7029;SDS011;3556;53.500;10.176;2022-07-29T00:47:44;2.77;;;2.00;;
7029;SDS011;3556;53.500;10.176;2022-07-29T00:50:10;4.03;;;2.33;;
7029;SDS011;3556;53.500;10.176;2022-07-29T00:52:37;2.47;;;2.20;;
7029;SDS011;3556;53.500;10.176;2022-07-29T00:55:05;2.40;;;2.03;;
7029;SDS011;3556;53.500;10.176;2022-07-29T00:57:32;3.23;;;2.30;;
7029;SDS011;3556;53.500;10.176;2022-07-29T00:59:58;2.50;;;2.40;;
7029;SDS011;3556;53.500;10.176;2022-07-29T01:02:24;4.20;;;1.90;;
7029;SDS011;3556;53.500;10.176;2022-07-29T01:04:50;7.63;;;2.57;;
7029;SDS011;3556;53.500;10.176;2022-07-29T01:07:16;1.90;;;1.80;;
7029;SDS011;3556;53.500;10.176;2022-07-29T01:09:43;2.40;;;2.30;;
7029;SDS011;3556;53.500;10.176;2022-07-29T01:12:10;2.37;;;2.27;;
7029;SDS011;3556;53.500;10.176;2022-07-29T01:14:38;2.33;;;2.13;;
7029;SDS011;3556;53.500;10.176;2022-07-29T01:17:08;5.10;;;2.80;;
7029;SDS011;3556;53.500;10.176;2022-07-29T01:19:49;2.30;;;2.20;;
7029;SDS011;3556;53.500;10.176;2022-07-29T01:22:44;2.27;;;2.10;;
7029;SDS011;3556;53.500;10.176;2022-07-29T01:31:16;2.60;;;2.50;;
7029;SDS011;3556;53.500;10.176;2022-07-29T01:33:45;2.10;;;2.00;;
7029;SDS011;3556;53.500;10.176;2022-07-29T01:36:23;3.33;;;2.10;;
7029;SDS011;3556;53.500;10.176;2022-07-29T01:39:10;9.03;;;2.83;;
7029;SDS011;3556;53.500;10.176;2022-07-29T01:41:38;2.70;;;2.60;;
7029;SDS011;3556;53.500;10.176;2022-07-29T01:44:13;9.40;;;3.30;;
7029;SDS011;3556;53.500;10.176;2022-07-29T01:46:44;2.63;;;2.43;;
7029;SDS011;3556;53.500;10.176;2022-07-29T01:49:18;3.27;;;2.97;;
7029;SDS011;3556;53.500;10.176;2022-07-29T01:51:54;3.00;;;2.73;;
7029;SDS011;3556;53.500;10.176;2022-07-29T01:54:26;3.00;;;2.40;;
7029;SDS011;3556;53.500;10.176;2022-07-29T01:56:59;3.30;;;2.70;;
7029;SDS011;3556;53.500;10.176;2022-07-29T01:59:26;3.63;;;2.60;;
7029;SDS011;3556;53.500;10.176;2022-07-29T02:01:56;3.83;;;2.87;;
7029;SDS011;3556;53.500;10.176;2022-07-29T02:04:23;3.90;;;2.60;;
7029;SDS011;3556;53.500;10.176;2022-07-29T02:06:50;2.43;;;2.30;;
7029;SDS011;3556;53.500;10.176;2022-07-29T02:09:19;2.77;;;2.67;;
7029;SDS011;3556;53.500;10.176;2022-07-29T02:11:48;3.00;;;2.80;;
7029;SDS011;3556;53.500;10.176;2022-07-29T02:14:17;6.20;;;3.00;;
7029;SDS011;3556;53.500;10.176;2022-07-29T02:16:45;2.97;;;2.77;;
7029;SDS011;3556;53.500;10.176;2022-07-29T02:19:14;3.13;;;2.93;;
7029;SDS011;3556;53.500;10.176;2022-07-29T02:21:42;6.40;;;2.97;;
7029;SDS011;3556;53.500;10.176;2022-07-29T02:24:09;3.37;;;2.77;;
7029;SDS011;3556;53.500;10.176;2022-07-29T02:26:37;8.20;;;2.63;;
7029;SDS011;3556;53.500;10.176;2022-07-29T02:29:06;3.03;;;2.80;;
7029;SDS011;3556;53.500;10.176;2022-07-29T02:31:34;2.53;;;2.43;;
7029;SDS011;3556;53.500;10.176;2022-07-29T02:34:02;3.90;;;2.83;;
7029;SDS011;3556;53.500;10.176;2022-07-29T02:36:29;4.70;;;2.43;;
7029;SDS011;3556;53.500;10.176;2022-07-29T02:38:57;5.50;;;3.00;;
7029;SDS011;3556;53.500;10.176;2022-07-29T02:41:30;3.30;;;3.10;;
7029;SDS011;3556;53.500;10.176;2022-07-29T02:44:17;6.27;;;3.13;;
7029;SDS011;3556;53.500;10.176;2022-07-29T02:46:57;9.80;;;2.93;;
7029;SDS011;3556;53.500;10.176;2022-07-29T02:52:02;3.00;;;2.90;;
7029;SDS011;3556;53.500;10.176;2022-07-29T02:54:37;5.90;;;2.90;;
7029;SDS011;3556;53.500;10.176;2022-07-29T02:57:04;5.87;;;2.97;;
7029;SDS011;3556;53.500;10.176;2022-07-29T02:59:36;3.00;;;2.80;;
7029;SDS011;3556;53.500;10.176;2022-07-29T03:02:05;3.97;;;2.50;;
7029;SDS011;3556;53.500;10.176;2022-07-29T03:04:33;3.63;;;3.40;;
7029;SDS011;3556;53.500;10.176;2022-07-29T03:07:00;3.20;;;3.00;;
7029;SDS011;3556;53.500;10.176;2022-07-29T03:09:26;3.73;;;2.80;;
7029;SDS011;3556;53.500;10.176;2022-07-29T03:11:53;3.20;;;3.00;;
7029;SDS011;3556;53.500;10.176;2022-07-29T03:14:20;4.53;;;3.20;;
7029;SDS011;3556;53.500;10.176;2022-07-29T03:16:48;4.83;;;2.80;;
7029;SDS011;3556;53.500;10.176;2022-07-29T03:19:14;3.10;;;2.90;;
7029;SDS011;3556;53.500;10.176;2022-07-29T03:21:41;3.20;;;2.90;;
7029;SDS011;3556;53.500;10.176;2022-07-29T03:24:06;2.60;;;2.50;;
7029;SDS011;3556;53.500;10.176;2022-07-29T03:26:32;3.00;;;2.77;;
7029;SDS011;3556;53.500;10.176;2022-07-29T03:28:58;4.97;;;3.60;;
7029;SDS011;3556;53.500;10.176;2022-07-29T03:31:24;6.97;;;3.10;;
7029;SDS011;3556;53.500;10.176;2022-07-29T03:33:50;3.00;;;2.80;;
7029;SDS011;3556;53.500;10.176;2022-07-29T03:36:16;3.10;;;2.90;;
7029;SDS011;3556;53.500;10.176;2022-07-29T03:38:42;7.50;;;3.00;;
7029;SDS011;3556;53.500;10.176;2022-07-29T03:41:09;4.97;;;2.57;;
7029;SDS011;3556;53.500;10.176;2022-07-29T03:43:37;3.20;;;2.90;;
7029;SDS011;3556;53.500;10.176;2022-07-29T03:46:06;5.07;;;2.80;;
7029;SDS011;3556;53.500;10.176;2022-07-29T03:48:34;3.50;;;2.90;;
7029;SDS011;3556;53.500;10.176;2022-07-29T03:51:04;3.17;;;2.97;;
7029;SDS011;3556;53.500;10.176;2022-07-29T03:53:30;4.97;;;2.80;;
7029;SDS011;3556;53.500;10.176;2022-07-29T03:55:58;3.17;;;2.87;;
7029;SDS011;3556;53.500;10.176;2022-07-29T03:58:27;3.37;;;3.17;;
7029;SDS011;3556;53.500;10.176;2022-07-29T04:00:55;3.77;;;2.97;;
7029;SDS011;3556;53.500;10.176;2022-07-29T04:03:22;9.90;;;2.90;;
7029;SDS011;3556;53.500;10.176;2022-07-29T04:08:43;3.90;;;2.70;;
7029;SDS011;3556;53.500;10.176;2022-07-29T04:11:09;2.87;;;2.77;;
7029;SDS011;3556;53.500;10.176;2022-07-29T04:13:34;2.90;;;2.70;;
7029;SDS011;3556;53.500;10.176;2022-07-29T04:16:00;2.83;;;2.60;;
7029;SDS011;3556;53.500;10.176;2022-07-29T04:18:25;2.83;;;2.63;;
7029;SDS011;3556;53.500;10.176;2022-07-29T04:20:51;2.77;;;2.50;;
7029;SDS011;3556;53.500;10.176;2022-07-29T04:23:17;3.03;;;2.70;;
7029;SDS011;3556;53.500;10.176;2022-07-29T04:25:43;3.13;;;3.03;;
7029;SDS011;3556;53.500;10.176;2022-07-29T04:28:09;5.27;;;3.00;;
7029;SDS011;3556;53.500;10.176;2022-07-29T04:30:35;6.50;;;3.00;;
7029;SDS011;3556;53.500;10.176;2022-07-29T04:33:03;3.13;;;2.90;;
7029;SDS011;3556;53.500;10.176;2022-07-29T04:35:35;4.93;;;3.30;;
7029;SDS011;3556;53.500;10.176;2022-07-29T04:38:02;2.90;;;2.70;;
7029;SDS011;3556;53.500;10.176;2022-07-29T04:40:29;7.20;;;3.00;;
7029;SDS011;3556;53.500;10.176;2022-07-29T04:42:54;4.57;;;3.40;;
7029;SDS011;3556;53.500;10.176;2022-07-29T04:45:20;4.50;;;3.00;;
7029;SDS011;3556;53.500;10.176;2022-07-29T04:47:46;2.90;;;2.70;;
7029;SDS011;3556;53.500;10.176;2022-07-29T04:50:11;3.83;;;3.00;;
7029;SDS011;3556;53.500;10.176;2022-07-29T04:52:37;3.30;;;2.90;;
7029;SDS011;3556;53.500;10.176;2022-07-29T04:55:03;3.83;;;3.50;;
7029;SDS011;3556;53.500;10.176;2022-07-29T04:57:30;2.87;;;2.77;;
7029;SDS011;3556;53.500;10.176;2022-07-29T04:59:56;3.10;;;2.90;;
7029;SDS011;3556;53.500;10.176;2022-07-29T05:02:21;5.90;;;3.30;;
7029;SDS011;3556;53.500;10.176;2022-07-29T05:04:47;3.07;;;2.87;;
7029;SDS011;3556;53.500;10.176;2022-07-29T05:07:13;2.80;;;2.70;;
7029;SDS011;3556;53.500;10.176;2022-07-29T05:09:39;3.10;;;2.80;;
7029;SDS011;3556;53.500;10.176;2022-07-29T05:12:05;5.90;;;3.07;;
7029;SDS011;3556;53.500;10.176;2022-07-29T05:14:31;7.13;;;3.27;;
7029;SDS011;3556;53.500;10.176;2022-07-29T05:16:57;3.37;;;3.07;;
7029;SDS011;3556;53.500;10.176;2022-07-29T05:19:23;3.07;;;2.87;;
7029;SDS011;3556;53.500;10.176;2022-07-29T05:21:49;3.33;;;2.63;;
7029;SDS011;3556;53.500;10.176;2022-07-29T05:24:15;2.87;;;2.67;;
7029;SDS011;3556;53.500;10.176;2022-07-29T05:26:41;4.30;;;3.00;;
7029;SDS011;3556;53.500;10.176;2022-07-29T05:29:07;4.43;;;2.53;;
7029;SDS011;3556;53.500;10.176;2022-07-29T05:31:33;3.07;;;2.73;;
7029;SDS011;3556;53.500;10.176;2022-07-29T05:33:58;2.93;;;2.57;;
7029;SDS011;3556;53.500;10.176;2022-07-29T05:36:24;3.27;;;2.97;;
7029;SDS011;3556;53.500;10.176;2022-07-29T05:38:50;2.87;;;2.77;;
7029;SDS011;3556;53.500;10.176;2022-07-29T05:41:17;2.97;;;2.77;;
7029;SDS011;3556;53.500;10.176;2022-07-29T05:43:43;4.80;;;2.73;;
7029;SDS011;3556;53.500;10.176;2022-07-29T05:46:08;2.57;;;2.47;;
7029;SDS011;3556;53.500;10.176;2022-07-29T05:48:34;3.03;;;2.77;;
7029;SDS011;3556;53.500;10.176;2022-07-29T05:51:00;3.93;;;2.87;;
7029;SDS011;3556;53.500;10.176;2022-07-29T05:53:25;7.40;;;3.27;;
7029;SDS011;3556;53.500;10.176;2022-07-29T05:55:51;6.80;;;2.67;;
7029;SDS011;3556;53.500;10.176;2022-07-29T05:58:17;3.00;;;2.80;;
7029;SDS011;3556;53.500;10.176;2022-07-29T06:00:43;6.67;;;2.60;;
7029;SDS011;3556;53.500;10.176;2022-07-29T06:03:09;3.13;;;2.70;;
7029;SDS011;3556;53.500;10.176;2022-07-29T06:05:34;2.70;;;2.60;;
7029;SDS011;3556;53.500;10.176;2022-07-29T06:08:00;2.93;;;2.60;;
7029;SDS011;3556;53.500;10.176;2022-07-29T06:10:26;3.00;;;2.90;;
7029;SDS011;3556;53.500;10.176;2022-07-29T06:12:51;2.40;;;2.30;;
7029;SDS011;3556;53.500;10.176;2022-07-29T06:15:17;2.70;;;2.53;;
7029;SDS011;3556;53.500;10.176;2022-07-29T06:17:43;3.00;;;2.60;;
7029;SDS011;3556;53.500;10.176;2022-07-29T06:20:09;8.00;;;2.70;;
7029;SDS011;3556;53.500;10.176;2022-07-29T06:22:35;8.50;;;2.70;;
7029;SDS011;3556;53.500;10.176;2022-07-29T06:25:01;2.63;;;2.50;;
7029;SDS011;3556;53.500;10.176;2022-07-29T06:27:27;2.30;;;2.20;;
7029;SDS011;3556;53.500;10.176;2022-07-29T06:29:53;2.50;;;2.10;;
7029;SDS011;3556;53.500;10.176;2022-07-29T06:32:19;2.97;;;2.70;;
7029;SDS011;3556;53.500;10.176;2022-07-29T06:34:44;3.30;;;2.27;;
7029;SDS011;3556;53.500;10.176;2022-07-29T06:37:10;4.10;;;2.83;;
7029;SDS011;3556;53.500;10.176;2022-07-29T06:39:36;2.53;;;2.33;;
7029;SDS011;3556;53.500;10.176;2022-07-29T06:42:03;3.60;;;3.40;;
7029;SDS011;3556;53.500;10.176;2022-07-29T06:44:29;2.63;;;2.53;;
7029;SDS011;3556;53.500;10.176;2022-07-29T06:46:55;3.03;;;2.30;;
7029;SDS011;3556;53.500;10.176;2022-07-29T06:49:21;6.70;;;2.70;;
7029;SDS011;3556;53.500;10.176;2022-07-29T06:51:47;3.00;;;2.30;;
7029;SDS011;3556;53.500;10.176;2022-07-29T06:54:12;3.03;;;2.83;;
7029;SDS011;3556;53.500;10.176;2022-07-29T06:56:38;2.60;;;2.40;;
7029;SDS011;3556;53.500;10.176;2022-07-29T06:59:10;3.13;;;2.80;;
7029;SDS011;3556;53.500;10.176;2022-07-29T07:01:37;2.87;;;2.60;;
7029;SDS011;3556;53.500;10.176;2022-07-29T07:04:04;2.50;;;2.30;;
7029;SDS011;3556;53.500;10.176;2022-07-29T07:06:30;2.83;;;2.60;;
7029;SDS011;3556;53.500;10.176;2022-07-29T07:08:56;2.97;;;2.70;;
7029;SDS011;3556;53.500;10.176;2022-07-29T07:11:22;2.60;;;2.43;;
7029;SDS011;3556;53.500;10.176;2022-07-29T07:13:47;2.67;;;2.57;;
7029;SDS011;3556;53.500;10.176;2022-07-29T07:16:13;3.63;;;2.47;;
7029;SDS011;3556;53.500;10.176;2022-07-29T07:18:39;3.73;;;3.13;;
7029;SDS011;3556;53.500;10.176;2022-07-29T07:21:05;2.80;;;2.60;;
7029;SDS011;3556;53.500;10.176;2022-07-29T07:23:31;5.17;;;2.80;;
7029;SDS011;3556;53.500;10.176;2022-07-29T07:25:56;2.80;;;2.60;;
7029;SDS011;3556;53.500;10.176;2022-07-29T07:28:22;4.63;;;2.63;;
7029;SDS011;3556;53.500;10.176;2022-07-29T07:30:48;2.60;;;2.40;;
7029;SDS011;3556;53.500;10.176;2022-07-29T07:33:13;3.03;;;2.83;;
7029;SDS011;3556;53.500;10.176;2022-07-29T07:35:39;2.73;;;2.30;;
7029;SDS011;3556;53.500;10.176;2022-07-29T07:38:06;3.67;;;2.80;;
7029;SDS011;3556;53.500;10.176;2022-07-29T07:40:32;4.90;;;2.73;;
7029;SDS011;3556;53.500;10.176;2022-07-29T07:42:57;3.93;;;2.60;;
7029;SDS011;3556;53.500;10.176;2022-07-29T07:45:23;2.60;;;2.50;;
7029;SDS011;3556;53.500;10.176;2022-07-29T07:47:49;5.80;;;2.47;;
7029;SDS011;3556;53.500;10.176;2022-07-29T07:50:15;4.00;;;2.63;;
7029;SDS011;3556;53.500;10.176;2022-07-29T07:52:52;3.80;;;2.63;;
7029;SDS011;3556;53.500;10.176;2022-07-29T07:55:20;4.70;;;2.67;;
7029;SDS011;3556;53.500;10.176;2022-07-29T07:57:46;2.70;;;2.33;;
7029;SDS011;3556;53.500;10.176;2022-07-29T08:00:12;4.60;;;2.50;;
7029;SDS011;3556;53.500;10.176;2022-07-29T08:02:39;2.30;;;2.20;;
7029;SDS011;3556;53.500;10.176;2022-07-29T08:05:06;5.17;;;2.33;;
7029;SDS011;3556;53.500;10.176;2022-07-29T08:07:32;2.50;;;2.30;;
7029;SDS011;3556;53.500;10.176;2022-07-29T08:09:58;2.87;;;2.63;;
7029;SDS011;3556;53.500;10.176;2022-07-29T08:12:24;2.70;;;2.50;;
7029;SDS011;3556;53.500;10.176;2022-07-29T08:14:50;3.33;;;2.50;;
7029;SDS011;3556;53.500;10.176;2022-07-29T08:17:15;3.43;;;2.60;;
7029;SDS011;3556;53.500;10.176;2022-07-29T08:19:41;2.50;;;2.20;;
7029;SDS011;3556;53.500;10.176;2022-07-29T08:22:07;7.70;;;2.87;;
7029;SDS011;3556;53.500;10.176;2022-07-29T08:24:32;2.73;;;2.63;;
7029;SDS011;3556;53.500;10.176;2022-07-29T08:27:16;2.50;;;2.40;;
7029;SDS011;3556;53.500;10.176;2022-07-29T08:29:42;2.50;;;2.30;;
7029;SDS011;3556;53.500;10.176;2022-07-29T08:32:08;2.23;;;2.03;;
7029;SDS011;3556;53.500;10.176;2022-07-29T08:34:33;3.00;;;2.80;;
7029;SDS011;3556;53.500;10.176;2022-07-29T08:36:59;2.73;;;2.40;;
7029;SDS011;3556;53.500;10.176;2022-07-29T08:39:25;4.50;;;2.50;;
7029;SDS011;3556;53.500;10.176;2022-07-29T08:41:51;2.87;;;2.40;;
7029;SDS011;3556;53.500;10.176;2022-07-29T08:44:17;10.33;;;2.90;;
7029;SDS011;3556;53.500;10.176;2022-07-29T08:46:44;5.03;;;2.93;;
7029;SDS011;3556;53.500;10.176;2022-07-29T08:49:10;6.07;;;2.60;;
7029;SDS011;3556;53.500;10.176;2022-07-29T08:51:36;5.40;;;2.53;;
7029;SDS011;3556;53.500;10.176;2022-07-29T08:54:04;2.70;;;2.50;;
7029;SDS011;3556;53.500;10.176;2022-07-29T08:56:30;4.53;;;2.70;;
7029;SDS011;3556;53.500;10.176;2022-07-29T08:58:57;5.60;;;2.60;;
7029;SDS011;3556;53.500;10.176;2022-07-29T09:01:25;3.90;;;2.60;;
7029;SDS011;3556;53.500;10.176;2022-07-29T09:03:55;3.00;;;2.53;;
7029;SDS011;3556;53.500;10.176;2022-07-29T09:06:24;7.63;;;2.50;;
7029;SDS011;3556;53.500;10.176;2022-07-29T09:08:53;2.50;;;2.10;;
7029;SDS011;3556;53.500;10.176;2022-07-29T09:11:22;2.50;;;2.40;;
7029;SDS011;3556;53.500;10.176;2022-07-29T09:13:48;3.00;;;2.40;;
7029;SDS011;3556;53.500;10.176;2022-07-29T09:16:14;5.57;;;2.57;;
7029;SDS011;3556;53.500;10.176;2022-07-29T09:18:41;4.00;;;2.10;;
7029;SDS011;3556;53.500;10.176;2022-07-29T09:21:09;3.17;;;2.30;;
7029;SDS011;3556;53.500;10.176;2022-07-29T09:24:03;4.47;;;2.10;;
7029;SDS011;3556;53.500;10.176;2022-07-29T09:26:33;2.30;;;2.10;;
7029;SDS011;3556;53.500;10.176;2022-07-29T09:29:10;2.40;;;2.30;;
7029;SDS011;3556;53.500;10.176;2022-07-29T09:31:41;2.40;;;2.20;;
7029;SDS011;3556;53.500;10.176;2022-07-29T09:34:11;5.47;;;2.57;;
7029;SDS011;3556;53.500;10.176;2022-07-29T09:36:42;3.63;;;2.10;;
7029;SDS011;3556;53.500;10.176;2022-07-29T09:39:12;2.70;;;2.50;;
7029;SDS011;3556;53.500;10.176;2022-07-29T09:41:53;2.60;;;2.23;;
7029;SDS011;3556;53.500;10.176;2022-07-29T09:44:20;2.23;;;2.13;;
7029;SDS011;3556;53.500;10.176;2022-07-29T09:46:57;4.93;;;2.47;;
7029;SDS011;3556;53.500;10.176;2022-07-29T09:49:34;2.47;;;2.27;;
7029;SDS011;3556;53.500;10.176;2022-07-29T09:52:14;2.40;;;2.20;;
7029;SDS011;3556;53.500;10.176;2022-07-29T09:54:40;3.60;;;2.40;;
7029;SDS011;3556;53.500;10.176;2022-07-29T09:57:07;2.30;;;2.10;;
7029;SDS011;3556;53.500;10.176;2022-07-29T09:59:37;2.27;;;2.17;;
7029;SDS011;3556;53.500;10.176;2022-07-29T10:02:13;3.10;;;2.17;;
7029;SDS011;3556;53.500;10.176;2022-07-29T10:04:42;3.03;;;2.60;;
7029;SDS011;3556;53.500;10.176;2022-07-29T10:07:07;2.27;;;2.10;;
7029;SDS011;3556;53.500;10.176;2022-07-29T10:09:34;2.10;;;2.00;;
7029;SDS011;3556;53.500;10.176;2022-07-29T10:14:34;9.23;;;2.30;;
7029;SDS011;3556;53.500;10.176;2022-07-29T10:17:01;3.47;;;1.80;;
7029;SDS011;3556;53.500;10.176;2022-07-29T10:19:28;2.93;;;2.73;;
7029;SDS011;3556;53.500;10.176;2022-07-29T10:21:58;2.73;;;1.90;;
7029;SDS011;3556;53.500;10.176;2022-07-29T10:24:26;2.10;;;2.00;;
7029;SDS011;3556;53.500;10.176;2022-07-29T10:26:53;2.30;;;2.03;;
7029;SDS011;3556;53.500;10.176;2022-07-29T10:29:23;2.70;;;2.00;;
7029;SDS011;3556;53.500;10.176;2022-07-29T10:34:34;2.67;;;2.13;;
7029;SDS011;3556;53.500;10.176;2022-07-29T10:37:22;4.20;;;2.20;;
7029;SDS011;3556;53.500;10.176;2022-07-29T10:42:52;7.40;;;2.07;;
7029;SDS011;3556;53.500;10.176;2022-07-29T10:45:18;3.33;;;1.80;;
7029;SDS011;3556;53.500;10.176;2022-07-29T10:47:44;1.90;;;1.80;;
7029;SDS011;3556;53.500;10.176;2022-07-29T10:50:10;2.03;;;1.90;;
7029;SDS011;3556;53.500;10.176;2022-07-29T10:52:52;3.20;;;2.00;;
7029;SDS011;3556;53.500;10.176;2022-07-29T10:55:55;7.87;;;2.10;;
7029;SDS011;3556;53.500;10.176;2022-07-29T11:00:46;2.10;;;2.00;;
7029;SDS011;3556;53.500;10.176;2022-07-29T11:03:42;7.60;;;2.00;;
7029;SDS011;3556;53.500;10.176;2022-07-29T11:06:09;4.03;;;2.03;;
7029;SDS011;3556;53.500;10.176;2022-07-29T11:08:34;2.17;;;1.97;;
7029;SDS011;3556;53.500;10.176;2022-07-29T11:13:58;2.73;;;2.00;;
7029;SDS011;3556;53.500;10.176;2022-07-29T11:16:24;1.83;;;1.73;;
7029;SDS011;3556;53.500;10.176;2022-07-29T11:21:38;3.93;;;1.93;;
7029;SDS011;3556;53.500;10.176;2022-07-29T11:24:12;2.10;;;1.97;;
7029;SDS011;3556;53.500;10.176;2022-07-29T11:26:39;5.17;;;1.87;;
7029;SDS011;3556;53.500;10.176;2022-07-29T11:31:46;1.80;;;1.70;;
7029;SDS011;3556;53.500;10.176;2022-07-29T11:34:32;2.43;;;1.90;;
7029;SDS011;3556;53.500;10.176;2022-07-29T11:39:33;1.70;;;1.60;;
7029;SDS011;3556;53.500;10.176;2022-07-29T11:45:04;2.53;;;1.90;;
7029;SDS011;3556;53.500;10.176;2022-07-29T11:50:16;2.20;;;1.93;;
7029;SDS011;3556;53.500;10.176;2022-07-29T11:52:54;3.10;;;1.70;;
7029;SDS011;3556;53.500;10.176;2022-07-29T11:55:20;2.10;;;1.80;;
7029;SDS011;3556;53.500;10.176;2022-07-29T11:57:48;6.63;;;2.20;;
7029;SDS011;3556;53.500;10.176;2022-07-29T12:02:50;3.97;;;1.60;;
7029;SDS011;3556;53.500;10.176;2022-07-29T12:05:16;2.63;;;1.90;;
7029;SDS011;3556;53.500;10.176;2022-07-29T12:07:42;2.57;;;1.90;;
7029;SDS011;3556;53.500;10.176;2022-07-29T12:10:08;8.57;;;2.10;;
7029;SDS011;3556;53.500;10.176;2022-07-29T12:12:34;1.90;;;1.80;;
7029;SDS011;3556;53.500;10.176;2022-07-29T12:15:13;1.70;;;1.60;;
7029;SDS011;3556;53.500;10.176;2022-07-29T12:17:42;2.70;;;1.93;;
7029;SDS011;3556;53.500;10.176;2022-07-29T12:20:08;1.77;;;1.70;;
7029;SDS011;3556;53.500;10.176;2022-07-29T12:22:38;1.87;;;1.70;;
7029;SDS011;3556;53.500;10.176;2022-07-29T12:25:09;1.70;;;1.60;;
7029;SDS011;3556;53.500;10.176;2022-07-29T12:27:37;4.03;;;2.03;;
7029;SDS011;3556;53.500;10.176;2022-07-29T12:30:13;7.70;;;2.10;;
7029;SDS011;3556;53.500;10.176;2022-07-29T12:32:45;2.90;;;2.10;;
7029;SDS011;3556;53.500;10.176;2022-07-29T12:37:42;4.43;;;1.90;;
7029;SDS011;3556;53.500;10.176;2022-07-29T12:40:10;2.00;;;1.80;;
7029;SDS011;3556;53.500;10.176;2022-07-29T12:42:38;2.50;;;2.30;;
7029;SDS011;3556;53.500;10.176;2022-07-29T12:45:04;4.10;;;2.50;;
7029;SDS011;3556;53.500;10.176;2022-07-29T12:47:30;1.80;;;1.70;;
7029;SDS011;3556;53.500;10.176;2022-07-29T12:50:10;1.70;;;1.60;;
7029;SDS011;3556;53.500;10.176;2022-07-29T12:52:39;3.00;;;1.83;;
7029;SDS011;3556;53.500;10.176;2022-07-29T12:55:05;5.33;;;1.97;;
7029;SDS011;3556;53.500;10.176;2022-07-29T12:57:31;5.23;;;1.70;;
7029;SDS011;3556;53.500;10.176;2022-07-29T13:00:09;7.23;;;2.07;;
7029;SDS011;3556;53.500;10.176;2022-07-29T13:02:37;8.10;;;1.97;;
7029;SDS011;3556;53.500;10.176;2022-07-29T13:05:04;2.60;;;1.90;;
7029;SDS011;3556;53.500;10.176;2022-07-29T13:07:32;2.43;;;2.00;;
7029;SDS011;3556;53.500;10.176;2022-07-29T13:10:11;1.80;;;1.70;;
7029;SDS011;3556;53.500;10.176;2022-07-29T13:15:27;2.60;;;1.87;;
7029;SDS011;3556;53.500;10.176;2022-07-29T13:17:52;1.60;;;1.50;;
7029;SDS011;3556;53.500;10.176;2022-07-29T13:20:18;4.33;;;2.30;;
7029;SDS011;3556;53.500;10.176;2022-07-29T13:22:49;1.60;;;1.50;;
7029;SDS011;3556;53.500;10.176;2022-07-29T13:25:15;4.00;;;1.90;;
7029;SDS011;3556;53.500;10.176;2022-07-29T13:27:53;1.93;;;1.83;;
7029;SDS011;3556;53.500;10.176;2022-07-29T13:30:19;1.70;;;1.60;;
7029;SDS011;3556;53.500;10.176;2022-07-29T13:32:46;6.37;;;2.30;;
7029;SDS011;3556;53.500;10.176;2022-07-29T13:35:12;2.13;;;2.03;;
7029;SDS011;3556;53.500;10.176;2022-07-29T13:37:38;8.13;;;1.97;;
7029;SDS011;3556;53.500;10.176;2022-07-29T13:40:05;3.30;;;1.73;;
7029;SDS011;3556;53.500;10.176;2022-07-29T13:42:34;4.30;;;2.13;;
7029;SDS011;3556;53.500;10.176;2022-07-29T13:45:00;4.30;;;1.63;;
7029;SDS011;3556;53.500;10.176;2022-07-29T13:47:27;6.93;;;1.93;;
7029;SDS011;3556;53.500;10.176;2022-07-29T13:49:54;1.97;;;1.87;;
7029;SDS011;3556;53.500;10.176;2022-07-29T13:52:20;6.97;;;2.00;;
7029;SDS011;3556;53.500;10.176;2022-07-29T13:54:46;3.00;;;1.50;;
7029;SDS011;3556;53.500;10.176;2022-07-29T13:57:11;3.27;;;2.10;;
7029;SDS011;3556;53.500;10.176;2022-07-29T13:59:38;4.57;;;2.27;;
7029;SDS011;3556;53.500;10.176;2022-07-29T14:02:05;2.53;;;2.07;;
7029;SDS011;3556;53.500;10.176;2022-07-29T14:04:32;2.30;;;2.03;;
7029;SDS011;3556;53.500;10.176;2022-07-29T14:06:58;2.40;;;2.20;;
7029;SDS011;3556;53.500;10.176;2022-07-29T14:09:24;2.70;;;2.40;;
7029;SDS011;3556;53.500;10.176;2022-07-29T14:11:49;4.90;;;2.20;;
7029;SDS011;3556;53.500;10.176;2022-07-29T14:14:16;1.90;;;1.80;;
7029;SDS011;3556;53.500;10.176;2022-07-29T14:16:42;2.63;;;2.43;;
7029;SDS011;3556;53.500;10.176;2022-07-29T14:19:07;2.50;;;2.23;;
7029;SDS011;3556;53.500;10.176;2022-07-29T14:21:33;4.43;;;2.40;;
7029;SDS011;3556;53.500;10.176;2022-07-29T14:23:59;2.50;;;2.30;;
7029;SDS011;3556;53.500;10.176;2022-07-29T14:26:25;2.90;;;2.23;;
7029;SDS011;3556;53.500;10.176;2022-07-29T14:28:51;4.40;;;2.10;;
7029;SDS011;3556;53.500;10.176;2022-07-29T14:31:16;3.30;;;2.40;;
7029;SDS011;3556;53.500;10.176;2022-07-29T14:33:42;2.60;;;2.17;;
7029;SDS011;3556;53.500;10.176;2022-07-29T14:36:08;6.77;;;2.37;;
7029;SDS011;3556;53.500;10.176;2022-07-29T14:38:34;3.93;;;2.20;;
7029;SDS011;3556;53.500;10.176;2022-07-29T14:41:00;2.20;;;2.10;;
7029;SDS011;3556;53.500;10.176;2022-07-29T14:43:26;3.00;;;2.30;;
7029;SDS011;3556;53.500;10.176;2022-07-29T14:45:52;4.23;;;2.17;;
7029;SDS011;3556;53.500;10.176;2022-07-29T14:48:17;3.20;;;2.10;;
7029;SDS011;3556;53.500;10.176;2022-07-29T14:50:43;4.77;;;2.00;;
7029;SDS011;3556;53.500;10.176;2022-07-29T14:53:09;5.50;;;2.73;;
7029;SDS011;3556;53.500;10.176;2022-07-29T14:55:34;9.13;;;2.30;;
7029;SDS011;3556;53.500;10.176;2022-07-29T14:58:00;2.20;;;2.10;;
7029;SDS011;3556;53.500;10.176;2022-07-29T15:00:26;2.20;;;2.00;;
7029;SDS011;3556;53.500;10.176;2022-07-29T15:02:52;4.13;;;2.10;;
7029;SDS011;3556;53.500;10.176;2022-07-29T15:05:18;2.30;;;2.10;;
7029;SDS011;3556;53.500;10.176;2022-07-29T15:07:43;4.03;;;2.00;;
7029;SDS011;3556;53.500;10.176;2022-07-29T15:10:09;2.23;;;2.13;;
7029;SDS011;3556;53.500;10.176;2022-07-29T15:12:35;2.67;;;2.20;;
7029;SDS011;3556;53.500;10.176;2022-07-29T15:15:00;2.93;;;2.20;;
7029;SDS011;3556;53.500;10.176;2022-07-29T15:17:26;3.80;;;2.10;;
7029;SDS011;3556;53.500;10.176;2022-07-29T15:19:52;2.50;;;2.00;;
7029;SDS011;3556;53.500;10.176;2022-07-29T15:22:17;2.47;;;2.27;;
7029;SDS011;3556;53.500;10.176;2022-07-29T15:24:43;5.47;;;2.30;;
7029;SDS011;3556;53.500;10.176;2022-07-29T15:27:09;2.77;;;2.60;;
7029;SDS011;3556;53.500;10.176;2022-07-29T15:29:39;10.23;;;2.40;;
7029;SDS011;3556;53.500;10.176;2022-07-29T15:32:06;6.50;;;2.63;;
7029;SDS011;3556;53.500;10.176;2022-07-29T15:34:32;3.13;;;2.23;;
7029;SDS011;3556;53.500;10.176;2022-07-29T15:36:58;7.90;;;2.03;;
7029;SDS011;3556;53.500;10.176;2022-07-29T15:39:24;4.63;;;2.17;;
7029;SDS011;3556;53.500;10.176;2022-07-29T15:41:50;17.03;;;2.40;;
7029;SDS011;3556;53.500;10.176;2022-07-29T15:44:15;3.10;;;2.70;;
7029;SDS011;3556;53.500;10.176;2022-07-29T15:46:41;3.67;;;2.07;;
7029;SDS011;3556;53.500;10.176;2022-07-29T15:49:25;2.40;;;2.30;;
7029;SDS011;3556;53.500;10.176;2022-07-29T15:51:56;2.13;;;2.00;;